Grizzly, Oregon
Current Conditions -  °F | °C
As of 1:20 AM on Wednesday 28 Jan 2015 (Local Time) from KS39 Reporting Station
Few Clouds Few Clouds  
Wind Chill:   Ceiling: Unl
Heat Index:   Visibility: 10mi
Dew Point:   Wind: 3mph
Humidity: 93%   Direction: 180°S
Pressure: 30.26"   Gusts: NA
Location:  44.5°N, 120.92°W
Report Text: KS39 280920Z AUTO 18003KT 10SM FEW110 02/01 A3026 RMK AO2
Loading
Personal Weather Stations






























Interactive Weather Map New forecast layout! Learn more

10-Day Weather Forecast

Advertisements
Track Severe Weather on mobile